Time;durP1;ratioP1;P1;durP2;ratioP2;P2;SDS_P1;SDS_P2;PMS_P1;PMS_P2;Temp;Humidity;BMP_temperature;BMP_pressure;BME280_temperature;BME280_humidity;BME280_pressure;Samples;Min_cycle;Max_cycle;Signal;HPM_P1;HPM_P2
2022/10/26 00:02:28;;;;;;;0.88;0.38;;;25.10;99.90;;;;;;4944017;29;20204;-75
2022/10/26 00:04:58;;;;;;;0.40;0.30;;;25.00;99.90;;;;;;4940515;29;20205;-77
2022/10/26 00:07:31;;;;;;;0.50;0.50;;;24.90;99.90;;;;;;4946306;29;20201;-78
2022/10/26 00:10:02;;;;;;;2.47;0.30;;;24.70;99.90;;;;;;4945670;29;20281;-79
2022/10/26 00:12:33;;;;;;;1.65;0.40;;;24.60;99.90;;;;;;4947907;29;20193;-77
2022/10/26 00:15:06;;;;;;;0.50;0.30;;;24.60;99.90;;;;;;4951779;29;20197;-77
2022/10/26 00:17:36;;;;;;;1.08;0.43;;;24.60;99.90;;;;;;4952209;28;20193;-77
2022/10/26 00:20:08;;;;;;;0.60;0.30;;;24.50;99.90;;;;;;4954501;29;20276;-76
2022/10/26 00:22:38;;;;;;;2.47;0.40;;;24.40;99.90;;;;;;4946343;28;20212;-77
2022/10/26 00:25:10;;;;;;;1.08;0.20;;;24.40;99.90;;;;;;4954768;28;20200;-77
2022/10/26 00:27:43;;;;;;;2.63;0.50;;;24.40;99.90;;;;;;4958676;28;20209;-72
2022/10/26 00:30:15;;;;;;;0.60;0.38;;;24.50;99.90;;;;;;4947486;28;20201;-78
2022/10/26 00:32:46;;;;;;;0.55;0.40;;;24.90;99.90;;;;;;4954514;29;20204;-78
2022/10/26 00:35:17;;;;;;;0.90;0.40;;;25.50;99.90;;;;;;4943533;28;20232;-79
2022/10/26 00:37:48;;;;;;;0.95;0.40;;;25.90;99.90;;;;;;4938329;29;20661;-76
2022/10/26 00:40:19;;;;;;;0.75;0.40;;;26.30;99.90;;;;;;4951040;29;20201;-76
2022/10/26 00:42:49;;;;;;;0.47;0.40;;;26.50;99.90;;;;;;4955590;29;20200;-79
2022/10/26 00:45:26;;;;;;;0.77;0.40;;;26.70;99.90;;;;;;4955666;29;20203;-78
2022/10/26 00:47:59;;;;;;;0.70;0.30;;;26.70;99.90;;;;;;4955747;29;20196;-78
2022/10/26 00:50:34;;;;;;;0.20;0.20;;;26.70;99.90;;;;;;4955723;29;20197;-77
2022/10/26 00:53:06;;;;;;;0.10;0.10;;;26.50;99.90;;;;;;4954090;28;20190;-72
2022/10/26 00:55:39;;;;;;;0.10;0.10;;;26.20;99.90;;;;;;4955353;29;20279;-71
2022/10/26 00:58:12;;;;;;;0.10;0.10;;;26.10;99.90;;;;;;4955629;29;20193;-76
2022/10/26 01:00:46;;;;;;;0.60;0.28;;;26.10;99.90;;;;;;4955517;29;20197;-75
2022/10/26 01:03:18;;;;;;;1.65;0.20;;;26.40;99.90;;;;;;4955529;29;20279;-78
2022/10/26 01:05:50;;;;;;;0.20;0.20;;;26.60;99.90;;;;;;4955475;29;20223;-77
2022/10/26 01:08:21;;;;;;;0.40;0.20;;;26.70;99.90;;;;;;4955509;29;20209;-80
2022/10/26 01:10:52;;;;;;;0.20;0.20;;;26.60;99.90;;;;;;4955140;29;20666;-74
2022/10/26 01:13:24;;;;;;;0.17;0.17;;;26.50;99.90;;;;;;4955255;29;20204;-77
2022/10/26 01:16:04;;;;;;;1.35;0.17;;;26.60;99.90;;;;;;4955317;29;20589;-76
2022/10/26 01:18:42;;;;;;;0.70;0.43;;;26.50;99.90;;;;;;4955207;28;20239;-77
2022/10/26 01:21:50;;;;;;;1.15;0.40;;;26.40;99.90;;;;;;4953562;28;20192;-78
2022/10/26 01:24:40;;;;;;;0.80;0.32;;;26.40;99.90;;;;;;4896120;29;20207;-77
2022/10/26 01:27:28;;;;;;;0.50;0.10;;;26.30;99.90;;;;;;4949758;29;20237;-76
2022/10/26 01:30:38;;;;;;;0.20;0.20;;;26.10;99.90;;;;;;4967692;28;20203;-76
2022/10/26 01:33:22;;;;;;;0.35;0.28;;;26.30;99.90;;;;;;4935740;29;20196;-76
2022/10/26 01:36:03;;;;;;;0.98;0.30;;;26.50;99.90;;;;;;4963078;28;20703;-76
2022/10/26 01:38:44;;;;;;;0.82;0.25;;;26.80;99.90;;;;;;4974398;28;20686;-76
2022/10/26 01:41:19;;;;;;;0.30;0.20;;;26.80;99.90;;;;;;4958966;28;20196;-77
2022/10/26 01:43:56;;;;;;;0.10;0.10;;;26.90;99.90;;;;;;4955492;29;20205;-77
2022/10/26 01:46:32;;;;;;;1.20;0.40;;;27.00;99.90;;;;;;4954288;29;20209;-78
2022/10/26 01:49:08;;;;;;;0.28;0.28;;;27.00;99.90;;;;;;4955032;29;20203;-79
2022/10/26 01:51:41;;;;;;;0.20;0.20;;;26.70;99.90;;;;;;4956312;28;20192;-74
2022/10/26 01:54:12;;;;;;;0.55;0.20;;;26.70;99.90;;;;;;4973920;28;20192;-77
2022/10/26 01:56:44;;;;;;;1.08;0.20;;;26.70;99.90;;;;;;4974263;28;20214;-80
2022/10/26 01:59:39;;;;;;;0.10;0.10;;;26.80;99.90;;;;;;4957731;28;20197;-77
2022/10/26 02:02:53;;;;;;;1.60;0.30;;;27.20;99.90;;;;;;4946312;29;20209;-74
2022/10/26 02:05:52;;;;;;;3.58;0.50;;;27.40;99.90;;;;;;4936427;29;20219;-77
2022/10/26 02:08:34;;;;;;;4.32;0.20;;;27.40;99.90;;;;;;4954726;29;20616;-77
2022/10/26 02:11:17;;;;;;;0.55;0.30;;;27.10;99.90;;;;;;4954746;29;20193;-77
2022/10/26 02:13:53;;;;;;;1.40;0.52;;;27.00;99.90;;;;;;4942583;28;20204;-77
2022/10/26 02:16:32;;;;;;;0.30;0.20;;;27.20;99.90;;;;;;4935652;29;20201;-77
2022/10/26 02:19:09;;;;;;;0.73;0.32;;;27.30;99.90;;;;;;4935610;29;20204;-77
2022/10/26 02:21:46;;;;;;;0.85;0.20;;;27.20;99.90;;;;;;4958514;28;20192;-76
2022/10/26 02:24:18;;;;;;;2.72;0.30;;;27.10;99.90;;;;;;4964297;28;20274;-77
2022/10/26 02:26:51;;;;;;;0.25;0.13;;;27.00;99.90;;;;;;4959993;28;20221;-79
2022/10/26 02:29:25;;;;;;;0.57;0.43;;;26.90;99.90;;;;;;4958761;28;20200;-78
2022/10/26 02:31:56;;;;;;;1.25;0.20;;;26.90;99.90;;;;;;4966024;28;20228;-80
2022/10/26 02:34:29;;;;;;;0.20;0.20;;;27.10;99.90;;;;;;4967562;28;20242;-78
2022/10/26 02:37:04;;;;;;;0.55;0.20;;;27.20;99.90;;;;;;4966430;28;20262;-77
2022/10/26 02:39:36;;;;;;;0.93;0.60;;;27.40;99.90;;;;;;4968018;28;20211;-81
2022/10/26 02:42:10;;;;;;;0.30;0.30;;;27.50;99.90;;;;;;4962681;28;20192;-78
2022/10/26 02:44:45;;;;;;;0.20;0.20;;;27.70;99.90;;;;;;4952740;28;20201;-78
2022/10/26 02:47:16;;;;;;;1.98;0.30;;;27.90;99.90;;;;;;4967102;28;20218;-78
2022/10/26 02:49:47;;;;;;;0.77;0.20;;;27.80;99.90;;;;;;4965499;28;20196;-77
2022/10/26 02:52:26;;;;;;;0.65;0.10;;;27.80;99.90;;;;;;4967845;28;20195;-75
2022/10/26 02:55:02;;;;;;;1.13;0.30;;;27.90;99.90;;;;;;4964712;28;20653;-76
2022/10/26 02:57:38;;;;;;;0.68;0.32;;;28.00;99.90;;;;;;4964464;28;20215;-77
2022/10/26 03:00:10;;;;;;;1.75;0.40;;;28.00;99.90;;;;;;4959006;28;20188;-78
2022/10/26 03:02:41;;;;;;;0.47;0.43;;;27.80;99.90;;;;;;4967652;28;20188;-77
2022/10/26 03:05:21;;;;;;;2.75;0.30;;;27.70;99.90;;;;;;4966130;28;20566;-77
2022/10/26 03:07:54;;;;;;;0.38;0.30;;;27.50;99.90;;;;;;4956572;28;20307;-79
2022/10/26 03:10:25;;;;;;;0.70;0.20;;;27.40;99.90;;;;;;4960424;28;20194;-79
2022/10/26 03:12:56;;;;;;;0.28;0.28;;;27.20;99.90;;;;;;4961388;28;20649;-79
2022/10/26 03:15:27;;;;;;;17.23;14.25;;;27.30;99.90;;;;;;4965075;28;20540;-77
2022/10/26 03:17:57;;;;;;;6.70;5.70;;;27.40;99.90;;;;;;4963562;28;20192;-72
2022/10/26 03:20:28;;;;;;;0.82;0.77;;;27.50;99.90;;;;;;4961138;28;20189;-73
2022/10/26 03:23:01;;;;;;;0.80;0.70;;;27.80;99.90;;;;;;4958111;28;20192;-77
2022/10/26 03:25:32;;;;;;;1.17;1.02;;;28.00;99.90;;;;;;4961565;28;20593;-79
2022/10/26 03:28:03;;;;;;;0.50;0.25;;;28.10;99.90;;;;;;4965223;28;20225;-77
2022/10/26 03:30:34;;;;;;;0.28;0.28;;;28.20;99.90;;;;;;4955453;28;20193;-77
2022/10/26 03:33:05;;;;;;;1.20;0.40;;;28.20;99.90;;;;;;4954627;28;20237;-78
2022/10/26 03:35:36;;;;;;;0.22;0.22;;;28.20;99.90;;;;;;4966122;28;20659;-78
2022/10/26 03:38:09;;;;;;;0.50;0.20;;;28.30;99.90;;;;;;4963871;28;20223;-74
2022/10/26 03:40:40;;;;;;;1.02;0.40;;;28.30;99.90;;;;;;4966400;28;20599;-79
2022/10/26 03:43:10;;;;;;;1.58;0.20;;;28.10;99.90;;;;;;4959847;28;20567;-76
2022/10/26 03:45:41;;;;;;;3.35;0.70;;;27.90;99.90;;;;;;4966717;28;20201;-75
2022/10/26 03:48:12;;;;;;;0.47;0.30;;;27.90;99.90;;;;;;4965070;28;20224;-80
2022/10/26 03:50:43;;;;;;;1.13;0.30;;;27.90;99.90;;;;;;4964409;28;21408;-75
2022/10/26 03:53:15;;;;;;;0.93;0.20;;;27.90;99.90;;;;;;4961142;28;20195;-77
2022/10/26 03:55:47;;;;;;;0.50;0.30;;;28.00;99.90;;;;;;4966884;28;20551;-77
2022/10/26 03:58:18;;;;;;;2.10;0.38;;;28.00;99.90;;;;;;4964405;28;20672;-79
2022/10/26 04:00:50;;;;;;;0.75;0.45;;;28.00;99.90;;;;;;4961421;28;20196;-78
2022/10/26 04:03:23;;;;;;;0.77;0.17;;;28.10;99.90;;;;;;4960547;28;20664;-79
2022/10/26 04:05:54;;;;;;;0.25;0.20;;;28.10;99.90;;;;;;4963839;28;20197;-80
2022/10/26 04:08:27;;;;;;;2.80;0.43;;;28.20;99.90;;;;;;4962664;28;20216;-78
2022/10/26 04:10:57;;;;;;;0.50;0.25;;;28.30;99.90;;;;;;4959914;28;20196;-79
2022/10/26 04:13:28;;;;;;;1.02;0.20;;;28.10;99.90;;;;;;4960637;28;20189;-78
2022/10/26 04:15:59;;;;;;;0.20;0.20;;;28.10;99.90;;;;;;4965249;28;20193;-77
2022/10/26 04:18:30;;;;;;;0.35;0.20;;;28.20;99.90;;;;;;4965809;28;20199;-77
2022/10/26 04:21:04;;;;;;;0.20;0.20;;;28.20;99.90;;;;;;4964221;28;20197;-79
2022/10/26 04:23:36;;;;;;;0.43;0.28;;;28.30;99.90;;;;;;4957993;28;20196;-79
2022/10/26 04:26:08;;;;;;;0.65;0.32;;;28.20;99.90;;;;;;4964750;28;20200;-79
2022/10/26 04:28:39;;;;;;;0.40;0.30;;;28.10;99.90;;;;;;4964740;28;20664;-79
2022/10/26 04:31:09;;;;;;;0.20;0.20;;;28.10;99.90;;;;;;4965048;28;20197;-78
2022/10/26 04:33:40;;;;;;;1.35;0.20;;;28.10;99.90;;;;;;4964656;28;20568;-77
2022/10/26 04:36:11;;;;;;;0.30;0.30;;;28.10;99.90;;;;;;4960017;28;20228;-77
2022/10/26 04:38:44;;;;;;;0.20;0.20;;;28.10;99.90;;;;;;4963950;28;20271;-79
2022/10/26 04:41:15;;;;;;;0.20;0.20;;;28.10;99.90;;;;;;4964806;28;20189;-78
2022/10/26 04:43:45;;;;;;;0.30;0.30;;;28.10;99.90;;;;;;4963270;28;20200;-78
2022/10/26 04:46:16;;;;;;;0.20;0.20;;;28.00;99.90;;;;;;4964406;28;20193;-78
2022/10/26 04:48:49;;;;;;;0.43;0.30;;;27.90;99.90;;;;;;4962679;28;20196;-80
2022/10/26 04:51:19;;;;;;;0.20;0.20;;;28.00;99.90;;;;;;4963673;28;20192;-79
2022/10/26 04:53:54;;;;;;;0.57;0.38;;;28.00;99.90;;;;;;4960625;28;20189;-79
2022/10/26 04:56:25;;;;;;;1.77;0.50;;;28.00;99.90;;;;;;4959928;28;20219;-79
2022/10/26 04:58:57;;;;;;;0.30;0.30;;;28.00;99.90;;;;;;4965417;28;20192;-79
2022/10/26 05:01:28;;;;;;;0.30;0.30;;;28.00;99.90;;;;;;4958460;28;20189;-79
2022/10/26 05:03:59;;;;;;;2.47;0.20;;;28.10;99.90;;;;;;4959482;28;20276;-80
2022/10/26 05:06:29;;;;;;;0.28;0.28;;;28.20;99.90;;;;;;4963277;28;20185;-78
2022/10/26 05:09:03;;;;;;;0.70;0.30;;;28.20;99.90;;;;;;4964723;28;20196;-80
2022/10/26 05:11:34;;;;;;;0.30;0.30;;;28.20;99.90;;;;;;4954818;28;20200;-80
2022/10/26 05:14:05;;;;;;;0.40;0.40;;;28.30;99.90;;;;;;4963337;28;20210;-79
2022/10/26 05:16:35;;;;;;;0.50;0.50;;;28.30;99.90;;;;;;4962160;28;20192;-79
2022/10/26 05:19:06;;;;;;;3.13;0.40;;;28.30;99.90;;;;;;4963281;28;20200;-79
2022/10/26 05:21:37;;;;;;;1.02;0.30;;;28.30;99.90;;;;;;4961276;28;20189;-79
2022/10/26 05:24:10;;;;;;;0.57;0.28;;;28.30;99.90;;;;;;4963945;28;20204;-78
2022/10/26 05:26:41;;;;;;;0.85;0.30;;;28.40;99.90;;;;;;4952829;28;20190;-80
2022/10/26 05:29:11;;;;;;;0.20;0.20;;;28.30;99.90;;;;;;4961785;28;20211;-80
2022/10/26 05:31:42;;;;;;;0.57;0.30;;;28.30;99.90;;;;;;4961787;28;20208;-80
2022/10/26 05:34:13;;;;;;;0.30;0.30;;;28.30;99.90;;;;;;4958106;28;20232;-80
2022/10/26 05:36:44;;;;;;;0.22;0.22;;;28.30;99.90;;;;;;4959622;28;20247;-80
2022/10/26 05:39:17;;;;;;;0.30;0.22;;;28.30;99.90;;;;;;4963728;28;20193;-80
2022/10/26 05:41:47;;;;;;;1.95;0.30;;;28.20;99.90;;;;;;4948006;28;21940;-77
2022/10/26 05:44:18;;;;;;;0.28;0.25;;;28.30;99.90;;;;;;4955309;28;20198;-73
2022/10/26 05:46:50;;;;;;;0.57;0.40;;;28.40;99.90;;;;;;4959664;28;20196;-78
2022/10/26 05:49:21;;;;;;;0.45;0.20;;;28.40;99.90;;;;;;4946374;28;20872;-74
2022/10/26 05:51:51;;;;;;;0.32;0.30;;;28.50;99.90;;;;;;4957715;28;20200;-80
2022/10/26 05:54:24;;;;;;;0.73;0.25;;;28.70;99.90;;;;;;4952845;28;20570;-77
2022/10/26 05:56:55;;;;;;;0.80;0.30;;;28.70;99.90;;;;;;4953384;28;20574;-76
2022/10/26 05:59:26;;;;;;;0.30;0.30;;;28.80;99.90;;;;;;4958052;28;20200;-77
2022/10/26 06:02:05;;;;;;;0.30;0.20;;;28.80;99.90;;;;;;4957156;28;20207;-80
2022/10/26 06:04:40;;;;;;;1.00;0.20;;;28.60;99.90;;;;;;4962518;28;20675;-78
2022/10/26 06:07:16;;;;;;;1.25;0.30;;;28.40;99.90;;;;;;4959962;28;20235;-77
2022/10/26 06:09:49;;;;;;;1.15;0.28;;;28.20;99.90;;;;;;4953663;28;20204;-80
2022/10/26 06:12:20;;;;;;;1.92;0.47;;;28.10;99.90;;;;;;4951045;28;20195;-77
2022/10/26 06:14:51;;;;;;;2.85;0.40;;;28.10;99.90;;;;;;4954988;28;20563;-74
2022/10/26 06:17:40;;;;;;;1.42;0.20;;;28.10;99.90;;;;;;4946440;28;20189;-80
2022/10/26 06:20:26;;;;;;;0.15;0.15;;;28.20;99.90;;;;;;4952977;28;20205;-75
2022/10/26 06:23:07;;;;;;;0.40;0.40;;;28.30;99.90;;;;;;4962578;28;20197;-78
2022/10/26 06:25:53;;;;;;;0.40;0.28;;;28.40;99.90;;;;;;4943088;28;20205;-77
2022/10/26 06:28:37;;;;;;;0.45;0.25;;;28.30;99.90;;;;;;4959446;28;20578;-78
2022/10/26 06:31:08;;;;;;;2.75;0.30;;;28.30;99.90;;;;;;4965697;28;20199;-80
2022/10/26 06:33:39;;;;;;;0.20;0.20;;;28.20;99.90;;;;;;4946079;28;20711;-79
2022/10/26 06:36:20;;;;;;;1.75;0.20;;;28.10;99.90;;;;;;4953345;28;20311;-77
2022/10/26 06:38:54;;;;;;;0.40;0.20;;;28.20;99.90;;;;;;4954387;28;20200;-75
2022/10/26 06:41:27;;;;;;;0.20;0.20;;;28.10;99.90;;;;;;4948861;28;20599;-74
2022/10/26 06:43:58;;;;;;;0.32;0.30;;;27.90;99.90;;;;;;4960074;28;20193;-81
2022/10/26 06:46:38;;;;;;;0.32;0.30;;;27.60;99.90;;;;;;4965835;28;20191;-80
2022/10/26 06:49:21;;;;;;;1.02;0.30;;;27.50;99.90;;;;;;4946130;28;20224;-78
2022/10/26 06:51:58;;;;;;;1.20;0.30;;;27.40;99.90;;;;;;4959704;28;20639;-78
2022/10/26 06:54:40;;;;;;;0.40;0.20;;;27.30;99.90;;;;;;4955513;28;20188;-80
2022/10/26 06:57:15;;;;;;;0.30;0.30;;;27.20;99.90;;;;;;4960625;28;20197;-78
2022/10/26 06:59:50;;;;;;;0.40;0.40;;;27.10;99.90;;;;;;4949630;28;20200;-78
2022/10/26 07:02:21;;;;;;;1.23;0.38;;;27.00;99.90;;;;;;4969171;28;20188;-79
2022/10/26 07:04:52;;;;;;;1.45;0.40;;;26.90;99.90;;;;;;4956119;28;20200;-80
2022/10/26 07:07:24;;;;;;;0.50;0.20;;;26.90;99.90;;;;;;4954416;28;20221;-77
2022/10/26 07:09:56;;;;;;;1.08;0.20;;;26.90;99.90;;;;;;4954024;28;20212;-78
2022/10/26 07:12:28;;;;;;;1.05;0.40;;;26.80;99.90;;;;;;4950518;28;20243;-76
2022/10/26 07:14:59;;;;;;;2.70;0.43;;;26.80;99.90;;;;;;4954021;28;20206;-81
2022/10/26 07:17:30;;;;;;;0.82;0.40;;;26.70;99.90;;;;;;4948317;28;20205;-73
2022/10/26 07:20:00;;;;;;;0.50;0.30;;;26.70;99.90;;;;;;4956062;28;20201;-77
2022/10/26 07:22:31;;;;;;;1.40;0.40;;;26.60;99.90;;;;;;4956064;28;20208;-75
2022/10/26 07:25:02;;;;;;;1.05;0.30;;;26.50;99.90;;;;;;4960451;28;20201;-81
2022/10/26 07:27:35;;;;;;;0.30;0.30;;;26.40;99.90;;;;;;4964677;28;20218;-79
2022/10/26 07:30:06;;;;;;;0.50;0.28;;;26.40;99.90;;;;;;4961301;28;20201;-80
2022/10/26 07:32:36;;;;;;;0.38;0.38;;;26.30;99.90;;;;;;4943141;28;20201;-77
2022/10/26 07:35:08;;;;;;;0.32;0.32;;;26.30;99.90;;;;;;4947115;28;20587;-78
2022/10/26 07:37:38;;;;;;;1.17;0.28;;;26.30;99.90;;;;;;4942827;28;20236;-80
2022/10/26 07:40:10;;;;;;;0.47;0.30;;;26.20;99.90;;;;;;4957790;28;20196;-80
2022/10/26 07:42:43;;;;;;;1.83;0.30;;;26.10;99.90;;;;;;4952902;28;20280;-77
2022/10/26 07:45:14;;;;;;;0.82;0.30;;;26.00;99.90;;;;;;4944210;28;20208;-82
2022/10/26 07:47:45;;;;;;;0.40;0.32;;;25.90;99.90;;;;;;4947405;28;20216;-80
2022/10/26 07:50:15;;;;;;;0.95;0.40;;;25.90;99.90;;;;;;4949961;28;20296;-79
2022/10/26 07:52:46;;;;;;;1.23;0.40;;;25.90;99.90;;;;;;4957088;28;20196;-80
2022/10/26 07:55:17;;;;;;;1.55;0.30;;;25.90;99.90;;;;;;4957993;28;20202;-81
2022/10/26 07:57:50;;;;;;;1.85;0.45;;;25.80;99.90;;;;;;4966301;28;20200;-81
2022/10/26 08:00:21;;;;;;;1.20;0.40;;;25.80;99.90;;;;;;4956568;28;20202;-75
2022/10/26 08:02:52;;;;;;;0.50;0.40;;;25.70;99.90;;;;;;4943659;28;20208;-78
2022/10/26 08:05:23;;;;;;;0.40;0.40;;;25.70;99.90;;;;;;4952134;28;20211;-80
2022/10/26 08:07:54;;;;;;;1.05;0.40;;;25.70;99.90;;;;;;4949697;28;20227;-76
2022/10/26 08:10:24;;;;;;;1.48;0.50;;;25.70;99.90;;;;;;4947649;28;20196;-79
2022/10/26 08:12:57;;;;;;;1.10;1.00;;;25.70;99.90;;;;;;4944253;28;20201;-79
2022/10/26 08:15:28;;;;;;;1.52;0.80;;;25.70;99.90;;;;;;4943268;28;20202;-79
2022/10/26 08:17:59;;;;;;;0.93;0.50;;;25.70;99.90;;;;;;4942983;28;20295;-77
2022/10/26 08:20:30;;;;;;;1.88;1.10;;;25.70;99.90;;;;;;4947277;28;20292;-76
2022/10/26 08:23:02;;;;;;;0.82;0.60;;;25.80;99.90;;;;;;4951779;28;20211;-78
2022/10/26 08:25:33;;;;;;;0.40;0.40;;;25.80;99.90;;;;;;4955589;28;20288;-77
2022/10/26 08:28:06;;;;;;;0.40;0.40;;;25.80;99.90;;;;;;4959022;28;20220;-77
2022/10/26 08:30:37;;;;;;;0.93;0.40;;;25.70;99.90;;;;;;4950696;28;20204;-79
2022/10/26 08:33:09;;;;;;;0.40;0.40;;;25.70;99.90;;;;;;4947516;28;20232;-79
2022/10/26 08:35:40;;;;;;;0.50;0.30;;;25.60;99.90;;;;;;4943571;28;20282;-73
2022/10/26 08:38:10;;;;;;;1.10;0.40;;;25.60;99.90;;;;;;4940730;28;20691;-82
2022/10/26 08:40:44;;;;;;;0.40;0.40;;;25.60;99.90;;;;;;4948455;28;20548;-79
2022/10/26 08:43:23;;;;;;;0.52;0.50;;;25.60;99.90;;;;;;4946523;28;20198;-76
2022/10/26 08:45:57;;;;;;;1.05;0.50;;;25.60;99.90;;;;;;4945256;28;20658;-80
2022/10/26 08:48:33;;;;;;;1.42;0.38;;;25.60;99.90;;;;;;4946044;28;20230;-80
2022/10/26 08:51:09;;;;;;;0.50;0.43;;;25.60;99.90;;;;;;4944056;28;20300;-75
2022/10/26 08:53:44;;;;;;;0.28;0.28;;;25.60;99.90;;;;;;4945077;28;20196;-75
2022/10/26 08:56:19;;;;;;;0.77;0.40;;;25.60;99.90;;;;;;4943373;28;20207;-75
2022/10/26 08:58:57;;;;;;;0.40;0.30;;;25.50;99.90;;;;;;4947475;28;20573;-74
2022/10/26 09:01:28;;;;;;;0.73;0.30;;;25.50;99.90;;;;;;4945253;28;20212;-78
2022/10/26 09:04:00;;;;;;;0.30;0.30;;;25.50;99.90;;;;;;4956358;28;20209;-80
2022/10/26 09:06:42;;;;;;;0.75;0.32;;;25.40;99.90;;;;;;4953484;28;20587;-78
2022/10/26 09:09:19;;;;;;;0.95;0.47;;;25.40;99.90;;;;;;4950469;28;20312;-81
2022/10/26 09:12:02;;;;;;;0.60;0.45;;;25.40;99.90;;;;;;4945508;28;20212;-73
2022/10/26 09:14:45;;;;;;;0.63;0.30;;;25.30;99.90;;;;;;4948319;28;20288;-79
2022/10/26 09:17:24;;;;;;;0.40;0.32;;;25.20;99.90;;;;;;4941184;28;20201;-79
2022/10/26 09:20:11;;;;;;;1.55;0.43;;;25.20;99.90;;;;;;4957332;28;20198;-79
2022/10/26 09:22:48;;;;;;;0.40;0.30;;;25.20;99.90;;;;;;4944716;29;20201;-79
2022/10/26 09:25:22;;;;;;;0.77;0.50;;;25.20;99.90;;;;;;4948218;29;20694;-76
2022/10/26 09:27:57;;;;;;;0.40;0.40;;;25.10;99.90;;;;;;4946222;29;20295;-81
2022/10/26 09:30:30;;;;;;;0.93;0.50;;;25.10;99.90;;;;;;4945207;29;20197;-79
2022/10/26 09:33:04;;;;;;;0.90;0.35;;;25.10;99.90;;;;;;4942845;28;20237;-80
2022/10/26 09:35:44;;;;;;;0.30;0.30;;;25.10;99.90;;;;;;4937998;29;20237;-78
2022/10/26 09:38:20;;;;;;;0.30;0.30;;;25.10;99.90;;;;;;4938096;28;20207;-79
2022/10/26 09:40:58;;;;;;;0.43;0.20;;;25.20;99.90;;;;;;4949329;28;20204;-79
2022/10/26 09:43:35;;;;;;;0.28;0.28;;;25.10;99.90;;;;;;4940168;29;20204;-82
2022/10/26 09:46:07;;;;;;;0.85;0.45;;;25.10;99.90;;;;;;4944149;29;20725;-76
2022/10/26 09:48:41;;;;;;;0.68;0.43;;;25.10;99.90;;;;;;4958044;29;20410;-78
2022/10/26 09:51:11;;;;;;;0.65;0.40;;;25.10;99.90;;;;;;4953234;29;20201;-79
2022/10/26 09:53:42;;;;;;;0.40;0.40;;;25.10;99.90;;;;;;4950514;28;20197;-74
2022/10/26 09:56:15;;;;;;;0.30;0.30;;;25.00;99.90;;;;;;4954811;28;20197;-73
2022/10/26 09:58:58;;;;;;;6.57;6.18;;;25.00;99.90;;;;;;4952980;29;20202;-81
2022/10/26 10:01:38;;;;;;;0.65;0.35;;;25.00;99.90;;;;;;4944656;29;20198;-79
2022/10/26 10:04:23;;;;;;;0.35;0.30;;;25.00;99.90;;;;;;4950531;29;20188;-73
2022/10/26 10:07:12;;;;;;;0.20;0.20;;;25.00;99.90;;;;;;4941246;28;20669;-74
2022/10/26 10:09:43;;;;;;;0.38;0.30;;;25.00;99.90;;;;;;4945785;29;20585;-76
2022/10/26 10:12:22;;;;;;;0.25;0.25;;;25.00;99.90;;;;;;4948857;29;20685;-77
2022/10/26 10:15:02;;;;;;;0.35;0.30;;;25.00;99.90;;;;;;4949800;29;20204;-80
2022/10/26 10:17:35;;;;;;;1.33;0.30;;;24.90;99.90;;;;;;4939513;29;20670;-78
2022/10/26 10:20:12;;;;;;;1.30;0.40;;;24.90;99.90;;;;;;4953431;29;20197;-78
2022/10/26 10:22:56;;;;;;;1.40;0.40;;;24.80;99.90;;;;;;4938855;29;20189;-81
2022/10/26 10:25:36;;;;;;;0.40;0.40;;;24.70;99.90;;;;;;4953962;29;20267;-75
2022/10/26 10:28:23;;;;;;;0.40;0.40;;;24.60;99.90;;;;;;4955930;29;20673;-76
2022/10/26 10:30:58;;;;;;;1.27;0.40;;;24.50;99.90;;;;;;4941683;29;20600;-78
2022/10/26 10:33:39;;;;;;;0.75;0.40;;;24.50;99.90;;;;;;4956185;28;20230;-74
2022/10/26 10:36:15;;;;;;;0.40;0.40;;;24.40;99.90;;;;;;4957130;29;20708;-74
2022/10/26 10:38:47;;;;;;;0.63;0.32;;;24.40;99.90;;;;;;4938842;29;20597;-78
2022/10/26 10:41:27;;;;;;;0.68;0.43;;;24.40;99.90;;;;;;4940084;29;20211;-77
2022/10/26 10:44:04;;;;;;;0.88;0.35;;;24.40;99.90;;;;;;4939599;29;20193;-78
2022/10/26 10:46:36;;;;;;;0.60;0.47;;;24.30;99.90;;;;;;4948254;28;20665;-79
2022/10/26 10:49:27;;;;;;;0.43;0.40;;;24.20;99.90;;;;;;4950453;28;20232;-82
2022/10/26 10:51:59;;;;;;;0.90;0.40;;;24.20;99.90;;;;;;4956998;28;20200;-79
2022/10/26 10:54:33;;;;;;;1.70;0.40;;;24.10;99.90;;;;;;4956829;29;20211;-80
2022/10/26 10:57:15;;;;;;;0.40;0.30;;;24.10;99.90;;;;;;4945181;29;20211;-72
2022/10/26 11:00:04;;;;;;;1.33;0.30;;;24.10;99.90;;;;;;4952039;29;20264;-73
2022/10/26 11:03:01;;;;;;;1.05;0.30;;;24.00;99.90;;;;;;4957815;29;20204;-75
2022/10/26 11:06:06;;;;;;;0.45;0.40;;;24.00;99.90;;;;;;4945359;28;20197;-72
2022/10/26 11:08:41;;;;;;;1.23;0.70;;;23.80;99.90;;;;;;4944256;29;20205;-73
2022/10/26 11:11:15;;;;;;;0.50;0.35;;;23.80;99.90;;;;;;4951444;29;20197;-78
2022/10/26 11:13:53;;;;;;;1.17;0.55;;;23.70;99.90;;;;;;4956980;29;20216;-72
2022/10/26 11:16:30;;;;;;;0.32;0.30;;;23.70;99.90;;;;;;4957396;29;20205;-72
2022/10/26 11:19:04;;;;;;;0.63;0.40;;;23.60;99.90;;;;;;4947354;29;20237;-79
2022/10/26 11:21:39;;;;;;;2.53;0.57;;;23.60;99.90;;;;;;4938290;29;20285;-82
2022/10/26 11:24:18;;;;;;;0.65;0.40;;;23.50;99.90;;;;;;4940350;29;20201;-81
2022/10/26 11:26:54;;;;;;;0.50;0.30;;;23.40;99.90;;;;;;4957314;29;20280;-79
2022/10/26 11:29:37;;;;;;;0.57;0.50;;;23.40;99.90;;;;;;4951138;28;20262;-81
2022/10/26 11:32:16;;;;;;;0.50;0.50;;;23.40;99.90;;;;;;4951552;29;20288;-75
2022/10/26 11:34:52;;;;;;;0.63;0.50;;;23.30;99.90;;;;;;4968565;28;20221;-75
2022/10/26 11:37:31;;;;;;;1.80;0.40;;;23.30;99.90;;;;;;4938929;29;20233;-79
2022/10/26 11:40:16;;;;;;;0.68;0.50;;;23.20;99.90;;;;;;4951276;29;20208;-81
2022/10/26 11:42:51;;;;;;;1.92;0.50;;;23.20;99.90;;;;;;4955733;29;20212;-79
2022/10/26 11:45:27;;;;;;;3.13;0.50;;;23.10;99.90;;;;;;4951864;29;20186;-81
2022/10/26 11:48:04;;;;;;;0.60;0.50;;;23.10;99.90;;;;;;4944293;29;20216;-80
2022/10/26 11:50:40;;;;;;;2.90;0.45;;;23.00;99.90;;;;;;4940570;29;20225;-81
2022/10/26 11:53:17;;;;;;;0.60;0.50;;;22.90;99.90;;;;;;4944794;29;20223;-81
2022/10/26 11:55:51;;;;;;;0.57;0.50;;;22.90;99.90;;;;;;4948381;29;20197;-81
2022/10/26 11:58:25;;;;;;;0.55;0.47;;;22.80;99.90;;;;;;4936702;29;20657;-81
2022/10/26 12:00:59;;;;;;;0.70;0.50;;;22.80;99.90;;;;;;4939000;29;20689;-79
2022/10/26 12:03:34;;;;;;;0.80;0.50;;;22.70;99.90;;;;;;4936375;29;20660;-81
2022/10/26 12:06:05;;;;;;;0.68;0.60;;;22.60;99.90;;;;;;4945584;29;20267;-80
2022/10/26 12:08:40;;;;;;;0.57;0.40;;;22.50;99.90;;;;;;4939289;29;20204;-80
2022/10/26 12:11:23;;;;;;;0.85;0.52;;;22.40;99.90;;;;;;4953522;29;20648;-81
2022/10/26 12:13:58;;;;;;;0.70;0.50;;;22.30;99.90;;;;;;4945033;29;20201;-81
2022/10/26 12:16:43;;;;;;;1.17;0.60;;;22.20;99.90;;;;;;4949156;29;20197;-81
2022/10/26 12:19:20;;;;;;;1.27;0.70;;;22.10;99.90;;;;;;4956132;29;20197;-80
2022/10/26 12:21:53;;;;;;;1.13;0.60;;;22.10;99.90;;;;;;4940232;28;20205;-81
2022/10/26 12:24:35;;;;;;;3.20;0.60;;;22.00;99.90;;;;;;4949750;29;20562;-81
2022/10/26 12:27:07;;;;;;;1.25;0.70;;;21.90;99.90;;;;;;4939163;29;20202;-82
2022/10/26 12:29:48;;;;;;;0.50;0.50;;;21.90;99.90;;;;;;4948991;29;20218;-81
2022/10/26 12:32:54;;;;;;;1.23;0.50;;;21.90;99.90;;;;;;4949687;29;20228;-81
2022/10/26 12:35:43;;;;;;;0.73;0.50;;;22.00;99.90;;;;;;4942028;29;20236;-73
2022/10/26 12:38:51;;;;;;;0.68;0.68;;;22.00;99.90;;;;;;4949599;29;20201;-80
2022/10/26 12:41:41;;;;;;;1.88;0.57;;;22.00;99.90;;;;;;4943283;29;20197;-80
2022/10/26 12:44:36;;;;;;;1.65;0.60;;;22.10;99.90;;;;;;4953467;28;20208;-76
2022/10/26 12:47:07;;;;;;;0.77;0.60;;;22.00;99.90;;;;;;4940883;29;20215;-76
2022/10/26 12:50:01;;;;;;;0.80;0.60;;;22.00;99.90;;;;;;4950548;29;20255;-80
2022/10/26 12:52:53;;;;;;;1.10;0.70;;;22.00;99.90;;;;;;4938461;29;20206;-81
2022/10/26 12:55:55;;;;;;;0.93;0.60;;;22.00;99.90;;;;;;4939046;29;20214;-80
2022/10/26 12:59:19;;;;;;;0.80;0.70;;;22.00;99.90;;;;;;4940258;29;20220;-80
2022/10/26 13:02:30;;;;;;;1.40;0.50;;;21.90;99.90;;;;;;4941160;28;20206;-81
2022/10/26 13:05:41;;;;;;;1.65;0.60;;;21.90;99.90;;;;;;4924377;29;20200;-79
2022/10/26 13:08:13;;;;;;;0.60;0.60;;;21.90;99.90;;;;;;4950461;29;20201;-81
2022/10/26 13:11:04;;;;;;;0.82;0.40;;;21.90;99.90;;;;;;4944091;29;20223;-81
2022/10/26 13:13:36;;;;;;;0.93;0.60;;;21.80;99.90;;;;;;4948483;28;20205;-81
2022/10/26 13:16:14;;;;;;;1.33;0.75;;;21.80;99.90;;;;;;4937479;28;20289;-79
2022/10/26 13:18:47;;;;;;;1.42;0.70;;;21.70;99.90;;;;;;4936242;29;20201;-81
2022/10/26 13:21:19;;;;;;;3.35;0.68;;;21.70;99.90;;;;;;4953775;29;20205;-81
2022/10/26 13:24:00;;;;;;;0.63;0.40;;;21.60;99.90;;;;;;4950285;29;20205;-80
2022/10/26 13:26:32;;;;;;;1.05;0.55;;;21.60;99.90;;;;;;4952970;29;20212;-82
2022/10/26 13:29:03;;;;;;;1.80;0.63;;;21.60;99.90;;;;;;4952470;29;20275;-80
2022/10/26 13:32:00;;;;;;;0.68;0.60;;;21.50;99.90;;;;;;4952299;29;20200;-82
2022/10/26 13:34:34;;;;;;;1.15;0.60;;;21.50;99.90;;;;;;4954133;28;20240;-81